Time;durP1;ratioP1;P1;durP2;ratioP2;P2;SDS_P1;SDS_P2;PMS_P1;PMS_P2;Temp;Humidity;BMP_temperature;BMP_pressure;BME280_temperature;BME280_humidity;BME280_pressure;Samples;Min_cycle;Max_cycle;Signal;HPM_P1;HPM_P2
2023/05/18 00:00:14;;;;;;;;;;;12.20;96.40;12.50;99670.00;;;;340161;28;90399;-92
2023/05/18 00:00:26;;;;;;;;;;;12.20;96.50;12.50;99663.00;;;;336988;28;82590;-92
2023/05/18 00:00:38;;;;;;;;;;;12.10;96.40;12.50;99676.00;;;;340346;28;89156;-91
2023/05/18 00:00:52;;;;;;;;;;;12.20;96.40;12.50;99671.00;;;;339566;28;82527;-93
2023/05/18 00:01:04;;;;;;;;;;;12.20;96.70;12.50;99673.00;;;;337626;28;89068;-90
2023/05/18 00:01:16;;;;;;;;;;;12.20;96.30;12.50;99676.00;;;;338220;28;82574;-90
2023/05/18 00:01:29;;;;;;;;;;;12.20;96.30;12.50;99662.00;;;;337796;28;88260;-91
2023/05/18 00:01:41;;;;;;;;;;;12.20;96.40;12.40;99666.00;;;;338271;28;82366;-90
2023/05/18 00:01:55;;;;;;;;;;;12.20;96.50;12.40;99669.00;;;;339565;28;87006;-91
2023/05/18 00:02:07;;;;;;;;;;;12.10;96.50;12.40;99671.00;;;;339739;28;82498;-92
2023/05/18 00:02:20;;;;;;;;;;;12.10;96.60;12.40;99669.00;;;;337659;28;90812;-92
2023/05/18 00:02:32;;;;;;;;;;;12.10;96.50;12.40;99682.00;;;;336841;28;82523;-92
2023/05/18 00:02:47;;;;;;;;;;;12.10;96.40;12.50;99677.00;;;;336347;28;90669;-92
2023/05/18 00:03:00;;;;;;;;;;;12.10;96.50;12.50;99677.00;;;;337977;28;82440;-92
2023/05/18 00:03:13;;;;;;;;;;;12.10;96.60;12.50;99679.00;;;;336340;28;87868;-92
2023/05/18 00:03:27;;;;;;;;;;;12.10;96.60;12.50;99669.00;;;;337028;28;83348;-92
2023/05/18 00:03:40;;;;;;;;;;;12.20;96.60;12.60;99678.00;;;;336470;28;88297;-92
2023/05/18 00:03:53;;;;;;;;;;;12.10;96.50;12.60;99672.00;;;;336957;28;82455;-92
2023/05/18 00:04:06;;;;;;;;;;;12.20;96.50;12.60;99666.00;;;;336017;28;88352;-92
2023/05/18 00:04:22;;;;;;;;;;;12.20;96.50;12.50;99676.00;;;;335489;28;82587;-92
2023/05/18 00:04:35;;;;;;;;;;;12.20;96.40;12.50;99660.00;;;;336156;28;91239;-92
2023/05/18 00:04:48;;;;;;;;;;;12.20;96.40;12.50;99677.00;;;;336831;28;82910;-92
2023/05/18 00:05:01;;;;;;;;;;;12.20;96.50;12.50;99674.00;;;;338942;28;89424;-92
2023/05/18 00:05:13;;;;;;;;;;;12.20;96.40;12.50;99668.00;;;;338237;28;82497;-92
2023/05/18 00:05:26;;;;;;;;;;;12.20;96.40;12.50;99668.00;;;;336412;28;89531;-93
2023/05/18 00:05:38;;;;;;;;;;;12.20;96.50;12.50;99669.00;;;;336854;28;82311;-92
2023/05/18 00:05:50;;;;;;;;;;;12.10;96.40;12.50;99664.00;;;;336155;28;89668;-92
2023/05/18 00:06:03;;;;;;;;;;;12.20;96.40;12.50;99670.00;;;;337002;28;82416;-92
2023/05/18 00:06:15;;;;;;;;;;;12.20;96.40;12.50;99676.00;;;;337630;28;89738;-92
2023/05/18 00:06:27;;;;;;;;;;;12.10;96.50;12.60;99667.00;;;;344903;28;83498;-91
2023/05/18 00:06:38;;;;;;;;;;;12.10;96.50;12.50;99675.00;;;;335176;29;88452;-92
2023/05/18 00:06:55;;;;;;;;;;;12.20;96.50;12.50;99673.00;;;;338171;28;83542;-92
2023/05/18 00:07:08;;;;;;;;;;;12.10;96.50;12.50;99671.00;;;;339022;28;89159;-92
2023/05/18 00:07:19;;;;;;;;;;;12.20;96.50;12.40;99672.00;;;;336975;28;83380;-91
2023/05/18 00:07:32;;;;;;;;;;;12.20;96.50;12.40;99683.00;;;;337000;28;86852;-91
2023/05/18 00:07:45;;;;;;;;;;;12.20;96.40;12.50;99680.00;;;;337962;28;82545;-92
2023/05/18 00:07:57;;;;;;;;;;;12.10;96.40;12.50;99674.00;;;;339013;28;87220;-92
2023/05/18 00:08:08;;;;;;;;;;;12.20;96.50;12.50;99674.00;;;;338165;28;83315;-93
2023/05/18 00:08:20;;;;;;;;;;;12.20;96.50;12.40;99671.00;;;;337453;28;88359;-91
2023/05/18 00:08:33;;;;;;;;;;;12.10;96.50;12.30;99671.00;;;;338186;28;82573;-92
2023/05/18 00:08:45;;;;;;;;;;;12.10;96.60;12.40;99668.00;;;;341846;28;91039;-93
2023/05/18 00:08:57;;;;;;;;;;;12.10;96.50;12.40;99670.00;;;;341951;28;82511;-92
2023/05/18 00:09:09;;;;;;;;;;;12.10;96.50;12.50;99665.00;;;;343106;28;92382;-92
2023/05/18 00:09:24;;;;;;;;;;;12.10;96.40;12.40;99667.00;;;;343781;28;82468;-93
2023/05/18 00:09:36;;;;;;;;;;;12.10;96.50;12.40;99666.00;;;;341358;28;89622;-91
2023/05/18 00:09:48;;;;;;;;;;;12.10;96.50;12.50;99669.00;;;;342329;28;82185;-92
2023/05/18 00:10:00;;;;;;;;;;;12.10;96.50;12.40;99676.00;;;;341792;28;90148;-93
2023/05/18 00:10:12;;;;;;;;;;;12.10;96.50;12.40;99670.00;;;;343434;28;82522;-92
2023/05/18 00:10:24;;;;;;;;;;;12.10;96.50;12.40;99680.00;;;;341696;28;90067;-92
2023/05/18 00:10:36;;;;;;;;;;;12.10;96.50;12.40;99672.00;;;;341752;28;83491;-93
2023/05/18 00:10:48;;;;;;;;;;;12.10;96.50;12.40;99670.00;;;;341441;28;90483;-92
2023/05/18 00:11:01;;;;;;;;;;;12.10;96.50;12.40;99669.00;;;;340572;28;83306;-93
2023/05/18 00:11:13;;;;;;;;;;;12.10;96.50;12.40;99678.00;;;;342878;28;90514;-92
2023/05/18 00:11:24;;;;;;;;;;;12.10;96.60;12.40;99661.00;;;;343519;28;83301;-91
2023/05/18 00:11:39;;;;;;;;;;;12.10;96.50;12.40;99666.00;;;;343174;28;90024;-92
2023/05/18 00:11:52;;;;;;;;;;;12.10;96.50;12.40;99666.00;;;;342011;28;82541;-93
2023/05/18 00:12:04;;;;;;;;;;;12.10;96.50;12.40;99678.00;;;;340428;28;91561;-92
2023/05/18 00:12:16;;;;;;;;;;;12.10;96.50;12.40;99674.00;;;;339528;28;83417;-92
2023/05/18 00:12:28;;;;;;;;;;;12.10;96.50;12.40;99674.00;;;;341781;28;90483;-92
2023/05/18 00:12:40;;;;;;;;;;;12.10;96.50;12.40;99676.00;;;;342175;28;83440;-92
2023/05/18 00:12:52;;;;;;;;;;;12.10;96.60;12.50;99669.00;;;;341848;28;90286;-92
2023/05/18 00:13:07;;;;;;;;;;;12.10;96.60;12.50;99673.00;;;;340529;28;82611;-92
2023/05/18 00:13:19;;;;;;;;;;;12.10;96.60;12.50;99672.00;;;;340350;28;90196;-92
2023/05/18 00:13:31;;;;;;;;;;;12.10;96.50;12.50;99667.00;;;;342179;28;83428;-92
2023/05/18 00:13:43;;;;;;;;;;;12.10;96.50;12.50;99672.00;;;;342713;28;90747;-93
2023/05/18 00:13:55;;;;;;;;;;;12.10;96.50;12.50;99667.00;;;;343301;28;82546;-92
2023/05/18 00:14:07;;;;;;;;;;;12.10;96.60;12.50;99670.00;;;;336249;28;91121;-92
2023/05/18 00:14:19;;;;;;;;;;;12.10;96.60;12.50;99672.00;;;;342031;28;83388;-92
2023/05/18 00:14:31;;;;;;;;;;;12.10;96.60;12.50;99661.00;;;;341546;28;90865;-92
2023/05/18 00:14:43;;;;;;;;;;;12.10;96.50;12.50;99671.00;;;;340892;28;82465;-92
2023/05/18 00:14:55;;;;;;;;;;;12.10;96.50;12.60;99671.00;;;;343080;28;90379;-92
2023/05/18 00:15:08;;;;;;;;;;;12.10;96.50;12.60;99671.00;;;;342083;28;83397;-92
2023/05/18 00:15:20;;;;;;;;;;;12.10;96.50;12.40;99669.00;;;;341731;28;89599;-92
2023/05/18 00:15:31;;;;;;;;;;;12.10;96.50;12.50;99678.00;;;;342146;28;82498;-93
2023/05/18 00:15:44;;;;;;;;;;;12.10;96.40;12.40;99671.00;;;;341500;28;90152;-92
2023/05/18 00:15:55;;;;;;;;;;;12.10;96.50;12.40;99670.00;;;;344804;28;83339;-91
2023/05/18 00:16:07;;;;;;;;;;;12.10;96.50;12.40;99667.00;;;;342853;28;91213;-93
2023/05/18 00:16:19;;;;;;;;;;;12.10;96.50;12.50;99669.00;;;;342075;28;82310;-92
2023/05/18 00:16:31;;;;;;;;;;;12.20;96.60;12.50;99677.00;;;;342820;28;90983;-92
2023/05/18 00:16:43;;;;;;;;;;;12.10;96.60;12.50;99675.00;;;;341859;28;83404;-91
2023/05/18 00:16:56;;;;;;;;;;;12.20;96.60;12.50;99671.00;;;;341730;28;90755;-91
2023/05/18 00:17:08;;;;;;;;;;;12.10;96.60;12.50;99676.00;;;;343403;28;83382;-91
2023/05/18 00:17:20;;;;;;;;;;;12.10;96.60;12.50;99674.00;;;;342834;28;93291;-92
2023/05/18 00:17:32;;;;;;;;;;;12.20;96.70;12.50;99664.00;;;;336500;28;83310;-93
2023/05/18 00:17:44;;;;;;;;;;;12.20;96.50;12.40;99672.00;;;;336175;28;91142;-93
2023/05/18 00:17:57;;;;;;;;;;;12.10;96.50;12.40;99668.00;;;;344830;28;83320;-93
2023/05/18 00:18:09;;;;;;;;;;;12.10;96.40;12.40;99667.00;;;;342880;28;90763;-93
2023/05/18 00:18:22;;;;;;;;;;;12.20;96.60;12.40;99675.00;;;;341867;28;83551;-92
2023/05/18 00:18:34;;;;;;;;;;;12.10;96.60;12.40;99672.00;;;;341719;28;87925;-93
2023/05/18 00:18:46;;;;;;;;;;;12.10;96.50;12.50;99670.00;;;;343198;28;83451;-93
2023/05/18 00:18:58;;;;;;;;;;;12.10;96.50;12.60;99671.00;;;;337522;28;90956;-92
2023/05/18 00:19:13;;;;;;;;;;;12.10;96.60;12.60;99669.00;;;;337706;28;83451;-92
2023/05/18 00:19:25;;;;;;;;;;;12.20;96.60;12.50;99673.00;;;;342643;28;92413;-93
2023/05/18 00:19:39;;;;;;;;;;;12.20;96.60;12.60;99667.00;;;;342047;28;83464;-93
2023/05/18 00:19:51;;;;;;;;;;;12.20;96.70;12.50;99669.00;;;;340278;28;90553;-92
2023/05/18 00:20:03;;;;;;;;;;;12.20;96.70;12.40;99675.00;;;;342105;28;82454;-94
2023/05/18 00:20:17;;;;;;;;;;;12.10;96.70;12.40;99675.00;;;;341481;28;91396;-92
2023/05/18 00:20:29;;;;;;;;;;;12.10;96.60;12.50;99674.00;;;;341941;28;83475;-92
2023/05/18 00:20:42;;;;;;;;;;;12.10;96.60;12.50;99671.00;;;;341649;28;92004;-94
2023/05/18 00:20:57;;;;;;;;;;;12.10;96.50;12.50;99669.00;;;;338055;28;82554;-92
2023/05/18 00:21:09;;;;;;;;;;;12.10;96.50;12.50;99675.00;;;;336186;28;89355;-93
2023/05/18 00:21:21;;;;;;;;;;;12.10;96.50;12.40;99667.00;;;;342002;28;83480;-92
2023/05/18 00:21:34;;;;;;;;;;;12.10;96.40;12.40;99671.00;;;;342925;28;91605;-92
2023/05/18 00:21:46;;;;;;;;;;;12.10;96.40;12.50;99672.00;;;;341766;28;83456;-92
2023/05/18 00:22:00;;;;;;;;;;;12.10;96.50;12.40;99679.00;;;;342823;28;91951;-92
2023/05/18 00:22:17;;;;;;;;;;;12.10;96.60;12.40;99667.00;;;;343515;28;82492;-93
2023/05/18 00:22:30;;;;;;;;;;;12.10;96.50;12.30;99674.00;;;;340046;28;90564;-91
2023/05/18 00:22:42;;;;;;;;;;;12.10;96.40;12.30;99673.00;;;;342003;28;82689;-92
2023/05/18 00:22:55;;;;;;;;;;;12.10;96.50;12.40;99661.00;;;;344157;28;92425;-92
2023/05/18 00:23:09;;;;;;;;;;;12.10;96.50;12.40;99665.00;;;;341854;28;83513;-93
2023/05/18 00:23:23;;;;;;;;;;;12.10;96.50;12.40;99662.00;;;;344037;28;90820;-93
2023/05/18 00:23:38;;;;;;;;;;;12.10;96.50;12.40;99670.00;;;;343473;28;82350;-92
2023/05/18 00:23:50;;;;;;;;;;;12.10;96.50;12.40;99664.00;;;;343078;28;91502;-93
2023/05/18 00:24:03;;;;;;;;;;;12.10;96.50;12.40;99667.00;;;;343569;28;83450;-92
2023/05/18 00:24:15;;;;;;;;;;;12.10;96.50;12.40;99669.00;;;;341562;28;90519;-92
2023/05/18 00:24:27;;;;;;;;;;;12.10;96.50;12.40;99671.00;;;;343240;28;82552;-92
2023/05/18 00:24:38;;;;;;;;;;;12.10;96.60;12.40;99668.00;;;;344290;28;90231;-92
2023/05/18 00:24:50;;;;;;;;;;;12.10;96.60;12.40;99660.00;;;;345074;28;82426;-93
2023/05/18 00:25:02;;;;;;;;;;;12.10;96.60;12.30;99669.00;;;;342623;28;92135;-93
2023/05/18 00:25:14;;;;;;;;;;;12.10;96.60;12.30;99671.00;;;;342040;28;82484;-93
2023/05/18 00:25:26;;;;;;;;;;;12.10;96.70;12.30;99671.00;;;;340354;28;90551;-92
2023/05/18 00:25:38;;;;;;;;;;;12.10;96.60;12.20;99674.00;;;;343465;28;82457;-92
2023/05/18 00:25:50;;;;;;;;;;;12.10;96.60;12.20;99665.00;;;;341564;28;92063;-92
2023/05/18 00:26:02;;;;;;;;;;;12.10;96.60;12.30;99668.00;;;;340902;28;82463;-93
2023/05/18 00:26:14;;;;;;;;;;;12.10;96.60;12.30;99671.00;;;;343152;28;91190;-91
2023/05/18 00:26:26;;;;;;;;;;;12.10;96.60;12.30;99668.00;;;;343406;28;82332;-93
2023/05/18 00:26:38;;;;;;;;;;;12.10;96.70;12.40;99663.00;;;;341684;28;90377;-93
2023/05/18 00:26:50;;;;;;;;;;;12.10;96.70;12.40;99659.00;;;;343325;28;82482;-91
2023/05/18 00:27:02;;;;;;;;;;;12.10;96.70;12.40;99664.00;;;;341348;28;96802;-93
2023/05/18 00:27:14;;;;;;;;;;;12.10;96.70;12.40;99668.00;;;;341900;28;83511;-92
2023/05/18 00:27:26;;;;;;;;;;;12.10;96.70;12.50;99657.00;;;;338795;28;96379;-91
2023/05/18 00:27:39;;;;;;;;;;;12.10;96.70;12.40;99672.00;;;;339417;28;82490;-92
2023/05/18 00:27:51;;;;;;;;;;;12.10;96.70;12.40;99666.00;;;;338544;28;96312;-93
2023/05/18 00:28:03;;;;;;;;;;;12.10;96.70;12.50;99668.00;;;;340741;28;82442;-92
2023/05/18 00:28:15;;;;;;;;;;;12.10;96.80;12.50;99662.00;;;;339547;28;95866;-92
2023/05/18 00:28:27;;;;;;;;;;;12.10;96.80;12.40;99665.00;;;;340575;28;83489;-93
2023/05/18 00:28:39;;;;;;;;;;;12.10;96.70;12.50;99662.00;;;;339912;28;95877;-92
2023/05/18 00:28:51;;;;;;;;;;;12.10;96.70;12.50;99666.00;;;;343454;28;82534;-93
2023/05/18 00:29:03;;;;;;;;;;;12.10;96.70;12.40;99661.00;;;;342576;28;96457;-93
2023/05/18 00:29:15;;;;;;;;;;;12.10;96.70;12.30;99665.00;;;;343298;28;82675;-92
2023/05/18 00:29:26;;;;;;;;;;;12.10;96.70;12.30;99663.00;;;;341354;28;96826;-92
2023/05/18 00:29:38;;;;;;;;;;;12.10;96.70;12.30;99671.00;;;;335147;29;83438;-92
2023/05/18 00:29:50;;;;;;;;;;;12.00;96.60;12.30;99665.00;;;;335728;28;96747;-92
2023/05/18 00:30:05;;;;;;;;;;;12.00;96.60;12.30;99666.00;;;;340787;28;83351;-92
2023/05/18 00:30:17;;;;;;;;;;;12.00;96.60;12.30;99672.00;;;;342625;28;95478;-93
2023/05/18 00:30:29;;;;;;;;;;;12.00;96.60;12.30;99666.00;;;;341729;28;82540;-93
2023/05/18 00:30:41;;;;;;;;;;;12.00;96.60;12.30;99667.00;;;;342652;28;96671;-92
2023/05/18 00:30:53;;;;;;;;;;;12.00;96.70;12.40;99660.00;;;;340585;28;83419;-92
2023/05/18 00:31:06;;;;;;;;;;;12.00;96.70;12.30;99655.00;;;;342725;28;93073;-92
2023/05/18 00:31:18;;;;;;;;;;;12.00;96.60;12.40;99664.00;;;;341966;28;83392;-92
2023/05/18 00:31:34;;;;;;;;;;;12.00;96.70;12.30;99660.00;;;;339852;28;95848;-93
2023/05/18 00:31:46;;;;;;;;;;;12.00;96.70;12.30;99664.00;;;;341920;28;83496;-93
2023/05/18 00:31:58;;;;;;;;;;;12.00;96.70;12.40;99662.00;;;;337040;28;97615;-92
2023/05/18 00:32:10;;;;;;;;;;;12.00;96.70;12.40;99657.00;;;;337872;28;83408;-92
2023/05/18 00:32:22;;;;;;;;;;;12.00;96.70;12.40;99664.00;;;;342613;28;95677;-93
2023/05/18 00:32:34;;;;;;;;;;;12.00;96.70;12.40;99661.00;;;;336599;28;83470;-92
2023/05/18 00:32:46;;;;;;;;;;;12.00;96.70;12.40;99654.00;;;;334452;29;96419;-91
2023/05/18 00:32:58;;;;;;;;;;;12.00;96.70;12.40;99665.00;;;;340560;28;83482;-92
2023/05/18 00:33:10;;;;;;;;;;;12.00;96.70;12.40;99657.00;;;;342583;28;95584;-92
2023/05/18 00:33:22;;;;;;;;;;;12.00;96.80;12.40;99650.00;;;;342130;28;82467;-92
2023/05/18 00:33:33;;;;;;;;;;;12.00;96.80;12.40;99654.00;;;;340018;28;96688;-92
2023/05/18 00:33:45;;;;;;;;;;;12.00;96.80;12.40;99656.00;;;;340655;28;82498;-92
2023/05/18 00:33:57;;;;;;;;;;;12.00;96.80;12.40;99658.00;;;;333203;29;96294;-93
2023/05/18 00:34:13;;;;;;;;;;;12.00;96.80;12.40;99661.00;;;;336743;28;82493;-91
2023/05/18 00:34:25;;;;;;;;;;;12.00;96.70;12.40;99660.00;;;;342657;28;95996;-92
2023/05/18 00:34:37;;;;;;;;;;;12.00;96.60;12.40;99656.00;;;;342063;28;83489;-91
2023/05/18 00:34:48;;;;;;;;;;;12.00;96.70;12.40;99658.00;;;;339892;28;96674;-91
2023/05/18 00:35:01;;;;;;;;;;;12.00;96.70;12.40;99664.00;;;;340680;28;82515;-92
2023/05/18 00:35:13;;;;;;;;;;;12.00;96.80;12.40;99660.00;;;;341248;28;97019;-91
2023/05/18 00:35:25;;;;;;;;;;;12.00;96.70;12.40;99655.00;;;;343205;28;83440;-91
2023/05/18 00:35:37;;;;;;;;;;;12.00;96.70;12.40;99660.00;;;;342359;28;94653;-91
2023/05/18 00:35:49;;;;;;;;;;;12.10;96.70;12.30;99664.00;;;;341970;28;82538;-92
2023/05/18 00:36:01;;;;;;;;;;;12.10;96.80;12.30;99660.00;;;;342724;28;96587;-91
2023/05/18 00:36:13;;;;;;;;;;;12.00;96.70;12.30;99666.00;;;;342050;28;83360;-94
2023/05/18 00:36:24;;;;;;;;;;;12.00;96.70;12.30;99662.00;;;;342561;28;94705;-92
2023/05/18 00:36:36;;;;;;;;;;;12.00;96.70;12.30;99660.00;;;;340911;28;83409;-92
2023/05/18 00:36:48;;;;;;;;;;;12.00;96.70;12.30;99656.00;;;;341273;28;96776;-90
2023/05/18 00:37:00;;;;;;;;;;;12.00;96.70;12.30;99662.00;;;;340603;28;82517;-91
2023/05/18 00:37:12;;;;;;;;;;;12.00;96.70;12.30;99659.00;;;;342659;28;95970;-91
2023/05/18 00:37:24;;;;;;;;;;;12.00;96.70;12.30;99667.00;;;;342021;28;82478;-91
2023/05/18 00:37:36;;;;;;;;;;;12.00;96.70;12.30;99665.00;;;;339996;28;92995;-91
2023/05/18 00:37:48;;;;;;;;;;;12.00;96.70;12.30;99663.00;;;;340692;28;82588;-91
2023/05/18 00:38:00;;;;;;;;;;;12.00;96.80;12.30;99656.00;;;;341379;28;94823;-92
2023/05/18 00:38:14;;;;;;;;;;;12.00;96.80;12.30;99657.00;;;;343484;28;83418;-92
2023/05/18 00:38:26;;;;;;;;;;;12.00;96.80;12.30;99664.00;;;;344064;28;96715;-92
2023/05/18 00:38:37;;;;;;;;;;;12.00;96.80;12.30;99658.00;;;;343476;28;83430;-91
2023/05/18 00:38:49;;;;;;;;;;;12.00;96.70;12.30;99657.00;;;;344008;28;95541;-92
2023/05/18 00:39:02;;;;;;;;;;;12.00;96.70;12.30;99658.00;;;;343387;28;83480;-93
2023/05/18 00:39:13;;;;;;;;;;;12.00;96.80;12.30;99652.00;;;;342358;28;96215;-91
2023/05/18 00:39:25;;;;;;;;;;;12.00;96.80;12.30;99657.00;;;;343457;28;82486;-91
2023/05/18 00:39:37;;;;;;;;;;;12.00;96.80;12.40;99653.00;;;;341335;28;94145;-92
2023/05/18 00:39:49;;;;;;;;;;;12.00;96.80;12.30;99657.00;;;;342092;28;83391;-92
2023/05/18 00:40:01;;;;;;;;;;;12.00;96.80;12.40;99652.00;;;;341178;28;97095;-91
2023/05/18 00:40:13;;;;;;;;;;;12.00;96.80;12.40;99651.00;;;;342286;28;83319;-93
2023/05/18 00:40:25;;;;;;;;;;;12.00;96.80;12.30;99650.00;;;;339819;28;95772;-92
2023/05/18 00:40:41;;;;;;;;;;;12.00;96.80;12.30;99661.00;;;;342275;28;83398;-90
2023/05/18 00:40:54;;;;;;;;;;;12.00;96.70;12.40;99650.00;;;;341174;28;96691;-92
2023/05/18 00:41:05;;;;;;;;;;;12.00;96.80;12.40;99653.00;;;;339345;28;82533;-92
2023/05/18 00:41:17;;;;;;;;;;;12.00;96.80;12.30;99657.00;;;;341352;28;96715;-92
2023/05/18 00:41:29;;;;;;;;;;;12.00;96.80;12.30;99662.00;;;;343512;28;83437;-91
2023/05/18 00:41:41;;;;;;;;;;;12.00;96.80;12.30;99660.00;;;;338327;28;92665;-91
2023/05/18 00:41:53;;;;;;;;;;;12.00;96.70;12.30;99653.00;;;;342010;28;83335;-91
2023/05/18 00:42:05;;;;;;;;;;;12.00;96.70;12.40;99652.00;;;;341344;28;96630;-91
2023/05/18 00:42:17;;;;;;;;;;;12.00;96.70;12.40;99659.00;;;;342118;28;82486;-91
2023/05/18 00:42:29;;;;;;;;;;;12.00;96.70;12.40;99655.00;;;;341242;28;96956;-91
2023/05/18 00:42:41;;;;;;;;;;;12.00;96.70;12.40;99650.00;;;;342016;28;83974;-91
2023/05/18 00:42:53;;;;;;;;;;;12.00;96.80;12.40;99655.00;;;;339830;28;95082;-91
2023/05/18 00:43:04;;;;;;;;;;;12.00;96.80;12.30;99658.00;;;;340787;28;82524;-91
2023/05/18 00:43:16;;;;;;;;;;;12.00;96.80;12.30;99659.00;;;;342732;28;96780;-91
2023/05/18 00:43:28;;;;;;;;;;;12.00;96.80;12.20;99649.00;;;;341929;28;83511;-92
2023/05/18 00:43:40;;;;;;;;;;;12.00;96.80;12.30;99651.00;;;;339921;28;96548;-91
2023/05/18 00:43:52;;;;;;;;;;;12.00;96.80;12.30;99666.00;;;;336679;28;82548;-92
2023/05/18 00:44:04;;;;;;;;;;;12.00;96.80;12.30;99658.00;;;;334539;29;97942;-92
2023/05/18 00:44:16;;;;;;;;;;;12.00;96.80;12.30;99666.00;;;;342006;28;83570;-92
2023/05/18 00:44:28;;;;;;;;;;;12.00;96.80;12.30;99667.00;;;;341323;28;96618;-92
2023/05/18 00:44:40;;;;;;;;;;;12.00;96.70;12.30;99660.00;;;;340437;28;83419;-92
2023/05/18 00:44:52;;;;;;;;;;;12.00;96.80;12.30;99661.00;;;;342624;28;95715;-91
2023/05/18 00:45:04;;;;;;;;;;;11.90;96.70;12.30;99668.00;;;;341918;28;82533;-92
2023/05/18 00:45:17;;;;;;;;;;;12.00;96.70;12.30;99662.00;;;;343983;28;96729;-91
2023/05/18 00:45:29;;;;;;;;;;;12.00;96.70;12.40;99660.00;;;;343358;28;82485;-91
2023/05/18 00:45:41;;;;;;;;;;;12.00;96.70;12.30;99659.00;;;;341188;28;95610;-92
2023/05/18 00:45:54;;;;;;;;;;;12.00;96.80;12.30;99656.00;;;;343447;28;82473;-93
2023/05/18 00:46:06;;;;;;;;;;;11.90;96.90;12.30;99665.00;;;;341128;28;96310;-93
2023/05/18 00:46:18;;;;;;;;;;;11.90;96.80;12.30;99661.00;;;;340626;28;83337;-94
2023/05/18 00:46:30;;;;;;;;;;;11.90;96.80;12.20;99663.00;;;;341169;28;95449;-92
2023/05/18 00:46:43;;;;;;;;;;;11.90;96.80;12.30;99668.00;;;;341897;28;82636;-92
2023/05/18 00:46:55;;;;;;;;;;;11.90;96.80;12.30;99667.00;;;;340942;28;96742;-92
2023/05/18 00:47:07;;;;;;;;;;;11.90;96.80;12.30;99666.00;;;;343280;28;83368;-92
2023/05/18 00:47:20;;;;;;;;;;;11.90;96.80;12.30;99666.00;;;;340014;28;93098;-93
2023/05/18 00:47:32;;;;;;;;;;;11.90;96.80;12.30;99661.00;;;;340603;28;83399;-93
2023/05/18 00:47:44;;;;;;;;;;;11.90;96.80;12.30;99665.00;;;;339853;28;96218;-93
2023/05/18 00:47:56;;;;;;;;;;;11.90;96.80;12.30;99665.00;;;;343305;28;82591;-92
2023/05/18 00:48:08;;;;;;;;;;;11.90;96.80;12.20;99668.00;;;;339802;28;98025;-93
2023/05/18 00:48:20;;;;;;;;;;;11.90;96.80;12.30;99671.00;;;;342016;28;83434;-93
2023/05/18 00:48:32;;;;;;;;;;;11.90;96.80;12.30;99671.00;;;;341267;28;95268;-93
2023/05/18 00:48:43;;;;;;;;;;;11.90;96.80;12.20;99671.00;;;;343315;28;82229;-92
2023/05/18 00:49:00;;;;;;;;;;;11.90;96.90;12.30;99665.00;;;;342561;28;96914;-93
2023/05/18 00:49:12;;;;;;;;;;;11.90;96.80;12.30;99670.00;;;;343301;28;83191;-93
2023/05/18 00:49:25;;;;;;;;;;;11.90;96.80;12.30;99672.00;;;;343818;28;96677;-92
2023/05/18 00:49:37;;;;;;;;;;;11.90;96.80;12.30;99663.00;;;;343146;28;82535;-92
2023/05/18 00:49:49;;;;;;;;;;;11.90;96.80;12.30;99664.00;;;;341044;28;95857;-92
2023/05/18 00:50:01;;;;;;;;;;;11.90;96.80;12.30;99669.00;;;;341941;28;82496;-93
2023/05/18 00:50:13;;;;;;;;;;;11.90;96.80;12.30;99675.00;;;;341192;28;96848;-93
2023/05/18 00:50:25;;;;;;;;;;;11.90;96.80;12.30;99670.00;;;;343364;28;83437;-92
2023/05/18 00:50:37;;;;;;;;;;;11.90;96.80;12.30;99667.00;;;;344000;28;94881;-94
2023/05/18 00:50:48;;;;;;;;;;;11.90;96.80;12.20;99661.00;;;;344565;28;83395;-94
2023/05/18 00:51:00;;;;;;;;;;;11.90;96.80;12.20;99669.00;;;;339706;28;96730;-93
2023/05/18 00:51:12;;;;;;;;;;;11.90;96.80;12.20;99668.00;;;;341898;28;83475;-93
2023/05/18 00:51:24;;;;;;;;;;;11.90;96.80;12.30;99662.00;;;;342648;28;95886;-93
2023/05/18 00:51:36;;;;;;;;;;;11.90;96.80;12.20;99673.00;;;;343349;28;83322;-93
2023/05/18 00:51:48;;;;;;;;;;;11.90;96.90;12.20;99668.00;;;;341897;28;95214;-93
2023/05/18 00:52:00;;;;;;;;;;;11.90;97.00;12.20;99665.00;;;;342038;28;83421;-92
2023/05/18 00:52:13;;;;;;;;;;;11.90;96.90;12.20;99672.00;;;;342126;28;96054;-92
2023/05/18 00:52:27;;;;;;;;;;;11.90;96.80;12.10;99666.00;;;;343322;28;82281;-92
2023/05/18 00:52:39;;;;;;;;;;;11.80;96.90;12.20;99662.00;;;;342646;28;94249;-92
2023/05/18 00:52:51;;;;;;;;;;;11.90;97.00;12.20;99665.00;;;;340759;28;83351;-93
2023/05/18 00:53:03;;;;;;;;;;;11.90;97.00;12.30;99669.00;;;;342586;28;93078;-92
2023/05/18 00:53:16;;;;;;;;;;;11.90;97.00;12.30;99660.00;;;;343140;28;83405;-93
2023/05/18 00:53:28;;;;;;;;;;;11.90;97.00;12.30;99664.00;;;;342547;28;95417;-92
2023/05/18 00:53:41;;;;;;;;;;;11.90;97.10;12.30;99676.00;;;;344056;28;82626;-94
2023/05/18 00:53:55;;;;;;;;;;;11.90;97.10;12.30;99672.00;;;;341146;28;92267;-92
2023/05/18 00:54:08;;;;;;;;;;;11.90;97.00;12.20;99667.00;;;;342023;28;82530;-92
2023/05/18 00:54:20;;;;;;;;;;;11.90;96.90;12.30;99673.00;;;;339575;28;93158;-92
2023/05/18 00:54:33;;;;;;;;;;;11.90;96.90;12.30;99662.00;;;;341582;28;83532;-93
2023/05/18 00:54:45;;;;;;;;;;;11.90;96.90;12.30;99669.00;;;;341077;28;95496;-94
2023/05/18 00:54:57;;;;;;;;;;;11.90;96.90;12.30;99667.00;;;;340615;28;82407;-93
2023/05/18 00:55:09;;;;;;;;;;;11.90;96.80;12.30;99667.00;;;;341150;28;96667;-93
2023/05/18 00:55:21;;;;;;;;;;;11.90;96.80;12.30;99665.00;;;;342073;28;82422;-93
2023/05/18 00:55:33;;;;;;;;;;;11.90;96.80;12.30;99666.00;;;;341179;28;94527;-93
2023/05/18 00:55:45;;;;;;;;;;;11.90;96.80;12.30;99670.00;;;;343281;28;83492;-93
2023/05/18 00:55:57;;;;;;;;;;;11.90;96.90;12.30;99668.00;;;;343981;28;96375;-93
2023/05/18 00:56:09;;;;;;;;;;;11.90;96.90;12.20;99678.00;;;;343399;28;82582;-93
2023/05/18 00:56:25;;;;;;;;;;;11.90;96.90;12.30;99668.00;;;;342086;28;97639;-93
2023/05/18 00:56:40;;;;;;;;;;;11.90;96.90;12.30;99662.00;;;;343463;28;82914;-93
2023/05/18 00:56:52;;;;;;;;;;;11.90;96.90;12.30;99669.00;;;;342303;28;96794;-93
2023/05/18 00:57:04;;;;;;;;;;;11.90;96.90;12.30;99661.00;;;;341883;28;83185;-92
2023/05/18 00:57:17;;;;;;;;;;;12.00;96.90;12.30;99668.00;;;;341281;28;94472;-93
2023/05/18 00:57:29;;;;;;;;;;;12.00;96.90;12.30;99664.00;;;;336550;28;83344;-92
2023/05/18 00:57:43;;;;;;;;;;;11.90;96.90;12.30;99662.00;;;;336417;28;96888;-93
2023/05/18 00:57:55;;;;;;;;;;;11.90;96.80;12.30;99669.00;;;;336498;28;83286;-93
2023/05/18 00:58:07;;;;;;;;;;;12.00;96.80;12.30;99667.00;;;;342345;28;95179;-92
2023/05/18 00:58:20;;;;;;;;;;;11.90;96.80;12.30;99666.00;;;;340509;28;83332;-93
2023/05/18 00:58:32;;;;;;;;;;;11.90;96.80;12.20;99671.00;;;;340808;28;93380;-92
2023/05/18 00:58:44;;;;;;;;;;;11.90;96.90;12.10;99669.00;;;;344285;28;83522;-93
2023/05/18 00:58:56;;;;;;;;;;;11.90;96.80;12.10;99667.00;;;;342420;28;94428;-93
2023/05/18 00:59:10;;;;;;;;;;;11.90;96.90;12.10;99669.00;;;;344181;28;82625;-93
2023/05/18 00:59:22;;;;;;;;;;;11.90;96.90;12.10;99667.00;;;;342411;28;96086;-93
2023/05/18 00:59:34;;;;;;;;;;;11.90;96.90;12.10;99671.00;;;;340659;28;83365;-94
2023/05/18 00:59:46;;;;;;;;;;;11.90;97.00;12.20;99667.00;;;;340920;28;95342;-93
2023/05/18 00:59:59;;;;;;;;;;;11.90;96.90;12.20;99669.00;;;;341902;28;83237;-93
2023/05/18 01:00:12;;;;;;;;;;;11.90;96.90;12.20;99659.00;;;;337051;28;94646;-93
2023/05/18 01:00:25;;;;;;;;;;;11.90;97.00;12.20;99667.00;;;;337798;28;83282;-93
2023/05/18 01:00:37;;;;;;;;;;;11.90;96.90;12.20;99659.00;;;;342532;28;94290;-92
2023/05/18 01:00:49;;;;;;;;;;;11.90;96.90;12.20;99655.00;;;;341932;28;83382;-92
2023/05/18 01:01:01;;;;;;;;;;;11.90;96.90;12.20;99664.00;;;;341068;28;94743;-91
2023/05/18 01:01:16;;;;;;;;;;;11.90;97.00;12.20;99666.00;;;;341990;28;83418;-93
2023/05/18 01:01:33;;;;;;;;;;;11.90;97.00;12.10;99666.00;;;;341267;28;93510;-93